createdAt,value
2018-06-30T00:00:13.621Z,100.00
2018-06-30T00:01:45.181Z,100.00
2018-06-30T00:03:08.395Z,100.00
2018-06-30T00:04:35.722Z,100.00
2018-06-30T00:06:07.060Z,100.00
2018-06-30T00:07:30.143Z,100.00
2018-06-30T00:09:01.540Z,100.00
2018-06-30T00:10:24.998Z,100.00
2018-06-30T00:11:56.387Z,100.00
2018-06-30T00:13:19.710Z,100.00
2018-06-30T00:14:47.055Z,100.00
2018-06-30T00:16:14.360Z,100.00
2018-06-30T00:17:41.817Z,100.00
2018-06-30T00:19:09.154Z,100.00
2018-06-30T00:20:36.324Z,100.00
2018-06-30T00:22:03.583Z,100.00
2018-06-30T00:23:34.895Z,100.00
2018-06-30T00:24:58.128Z,100.00
2018-06-30T00:26:25.421Z,100.00
2018-06-30T00:27:52.772Z,100.00
2018-06-30T00:29:20.077Z,100.00
2018-06-30T00:30:47.313Z,100.00
2018-06-30T00:32:18.732Z,100.00
2018-06-30T00:33:42.117Z,100.00
2018-06-30T00:35:13.609Z,100.00
2018-06-30T00:36:36.906Z,100.00
2018-06-30T00:38:04.066Z,100.00
2018-06-30T00:39:31.343Z,100.00
2018-06-30T00:40:58.881Z,100.00
2018-06-30T00:42:26.232Z,100.00
2018-06-30T00:43:53.730Z,100.00
2018-06-30T00:45:25.041Z,100.00
2018-06-30T00:46:48.171Z,100.00
2018-06-30T00:48:15.523Z,100.00
2018-06-30T00:49:42.737Z,100.00
2018-06-30T00:51:10.197Z,100.00
2018-06-30T00:52:37.742Z,100.00
2018-06-30T00:54:05.131Z,100.00
2018-06-30T00:55:36.650Z,100.00
2018-06-30T00:56:59.933Z,100.00
2018-06-30T00:58:27.373Z,100.00
2018-06-30T00:59:54.453Z,100.00
2018-06-30T01:01:21.770Z,100.00
2018-06-30T01:02:52.900Z,100.00
2018-06-30T01:04:20.165Z,100.00
2018-06-30T01:05:47.594Z,100.00
2018-06-30T01:07:11.021Z,100.00
2018-06-30T01:08:42.188Z,100.00
2018-06-30T01:10:05.467Z,100.00
2018-06-30T01:11:36.802Z,100.00
2018-06-30T01:12:59.994Z,100.00
2018-06-30T01:14:27.269Z,100.00
2018-06-30T01:15:54.534Z,100.00
2018-06-30T01:17:21.880Z,100.00
2018-06-30T01:18:49.131Z,100.00
2018-06-30T01:20:20.324Z,100.00
2018-06-30T01:21:47.916Z,100.00
2018-06-30T01:23:15.035Z,100.00
2018-06-30T01:24:38.251Z,100.00
2018-06-30T01:26:09.850Z,100.00
2018-06-30T01:27:33.326Z,100.00
2018-06-30T01:29:00.736Z,100.00
2018-06-30T01:30:32.151Z,100.00
2018-06-30T01:31:59.538Z,100.00
2018-06-30T01:33:26.807Z,100.00
2018-06-30T01:34:50.132Z,100.00
2018-06-30T01:36:17.692Z,100.00
2018-06-30T01:37:49.167Z,100.00
2018-06-30T01:39:16.731Z,100.00
2018-06-30T01:40:44.253Z,100.00
2018-06-30T01:42:11.714Z,100.00
2018-06-30T01:43:35.107Z,100.00
2018-06-30T01:45:02.356Z,100.00
2018-06-30T01:46:29.702Z,100.00
2018-06-30T01:48:01.991Z,100.00
2018-06-30T01:49:28.360Z,100.00
2018-06-30T01:50:51.806Z,100.00
2018-06-30T01:52:18.888Z,100.00
2018-06-30T01:53:50.457Z,100.00
2018-06-30T01:55:17.574Z,100.00
2018-06-30T01:56:40.850Z,100.00
2018-06-30T01:58:08.147Z,100.00
2018-06-30T01:59:35.370Z,100.00
2018-06-30T02:01:06.941Z,100.00
2018-06-30T02:02:30.333Z,100.00
2018-06-30T02:03:57.709Z,100.00
2018-06-30T02:05:25.190Z,100.00
2018-06-30T02:06:56.501Z,100.00
2018-06-30T02:08:19.644Z,100.00
2018-06-30T02:09:47.326Z,100.00
2018-06-30T02:11:18.681Z,100.00
2018-06-30T02:12:41.880Z,100.00
2018-06-30T02:14:09.240Z,100.00
2018-06-30T02:15:36.691Z,100.00
2018-06-30T02:17:03.904Z,100.00
2018-06-30T02:18:35.175Z,100.00
2018-06-30T02:20:02.412Z,100.00
2018-06-30T02:21:29.902Z,100.00
2018-06-30T02:22:53.104Z,100.00
2018-06-30T02:24:20.236Z,100.00
2018-06-30T02:25:47.584Z,100.00
2018-06-30T02:27:15.007Z,100.00
2018-06-30T02:28:42.471Z,100.00
2018-06-30T02:30:09.915Z,100.00
2018-06-30T02:31:37.328Z,100.00
2018-06-30T02:33:04.931Z,100.00
2018-06-30T02:34:32.132Z,100.00
2018-06-30T02:36:03.637Z,100.00
2018-06-30T02:37:26.936Z,100.00
2018-06-30T02:38:54.402Z,100.00
2018-06-30T02:40:21.396Z,100.00
2018-06-30T02:41:52.923Z,100.00
2018-06-30T02:43:16.324Z,100.00
2018-06-30T02:44:43.724Z,100.00
2018-06-30T02:46:11.145Z,100.00
2018-06-30T02:47:38.394Z,100.00
2018-06-30T02:49:05.887Z,100.00
2018-06-30T02:50:33.133Z,100.00
2018-06-30T02:52:04.312Z,100.00
2018-06-30T02:53:27.830Z,100.00
2018-06-30T02:54:55.154Z,100.00
2018-06-30T02:56:22.506Z,100.00
2018-06-30T02:57:49.714Z,100.00
2018-06-30T02:59:17.344Z,100.00
2018-06-30T03:00:44.700Z,100.00
2018-06-30T03:02:12.125Z,100.00
2018-06-30T03:03:43.265Z,100.00
2018-06-30T03:05:06.748Z,100.00
2018-06-30T03:06:38.177Z,100.00
2018-06-30T03:08:01.605Z,100.00
2018-06-30T03:09:29.007Z,100.00
2018-06-30T03:10:56.213Z,100.00
2018-06-30T03:12:23.742Z,100.00
2018-06-30T03:13:54.817Z,100.00
2018-06-30T03:15:18.240Z,100.00
2018-06-30T03:16:45.775Z,100.00
2018-06-30T03:18:13.066Z,100.00
2018-06-30T03:19:40.452Z,100.00
2018-06-30T03:21:12.013Z,100.00
2018-06-30T03:22:35.227Z,100.00
2018-06-30T03:24:02.284Z,100.00
2018-06-30T03:25:29.626Z,100.00
2018-06-30T03:27:01.059Z,100.00
2018-06-30T03:28:24.190Z,100.00
2018-06-30T03:29:51.422Z,100.00
2018-06-30T03:31:22.601Z,100.00
2018-06-30T03:32:49.979Z,100.00
2018-06-30T03:34:13.044Z,100.00
2018-06-30T03:35:44.522Z,100.00
2018-06-30T03:37:07.884Z,100.00
2018-06-30T03:38:35.039Z,100.00
2018-06-30T03:40:02.477Z,100.00
2018-06-30T03:41:33.698Z,100.00
2018-06-30T03:42:57.248Z,100.00
2018-06-30T03:44:24.742Z,100.00
2018-06-30T03:45:52.206Z,100.00
2018-06-30T03:47:19.688Z,100.00
2018-06-30T03:48:50.858Z,100.00
2018-06-30T03:50:14.125Z,100.00
2018-06-30T03:51:41.296Z,100.00
2018-06-30T03:53:12.807Z,100.00
2018-06-30T03:54:36.010Z,100.00
2018-06-30T03:56:03.176Z,100.00
2018-06-30T03:57:30.632Z,100.00
2018-06-30T03:58:58.096Z,100.00
2018-06-30T04:00:25.860Z,100.00
2018-06-30T04:01:53.487Z,100.00
2018-06-30T04:03:20.811Z,100.00
2018-06-30T04:04:52.472Z,100.00
2018-06-30T04:06:15.902Z,100.00
2018-06-30T04:07:43.632Z,100.00
2018-06-30T04:09:14.964Z,100.00
2018-06-30T04:10:38.381Z,100.00
2018-06-30T04:12:09.774Z,100.00
2018-06-30T04:13:33.303Z,100.00
2018-06-30T04:15:00.902Z,100.00
2018-06-30T04:16:32.380Z,100.00
2018-06-30T04:17:55.898Z,100.00
2018-06-30T04:19:27.278Z,100.00
2018-06-30T04:20:50.625Z,100.00
2018-06-30T04:22:18.096Z,100.00
2018-06-30T04:23:45.691Z,100.00
2018-06-30T04:25:17.115Z,100.00
2018-06-30T04:26:44.473Z,100.00
2018-06-30T04:28:07.813Z,100.00
2018-06-30T04:29:35.285Z,100.00
2018-06-30T04:31:02.668Z,100.00
2018-06-30T04:32:29.922Z,100.00
2018-06-30T04:33:57.424Z,100.00
2018-06-30T04:35:24.792Z,100.00
2018-06-30T04:36:52.041Z,100.00
2018-06-30T04:38:23.365Z,100.00
2018-06-30T04:39:50.821Z,100.00
2018-06-30T04:41:18.272Z,100.00
2018-06-30T04:42:41.172Z,100.00
2018-06-30T04:44:08.591Z,100.00
2018-06-30T04:45:35.896Z,100.00
2018-06-30T04:47:03.323Z,100.00
2018-06-30T04:48:34.763Z,100.00
2018-06-30T04:50:02.266Z,100.00
2018-06-30T04:51:25.566Z,100.00
2018-06-30T04:52:56.933Z,100.00
2018-06-30T04:54:20.179Z,100.00
2018-06-30T04:55:47.512Z,100.00
2018-06-30T04:57:19.080Z,100.00
2018-06-30T04:58:42.536Z,100.00
2018-06-30T05:00:09.394Z,100.00
2018-06-30T05:01:36.794Z,100.00
2018-06-30T05:03:07.981Z,100.00
2018-06-30T05:04:35.221Z,100.00
2018-06-30T05:05:58.592Z,100.00
2018-06-30T05:07:25.838Z,100.00
2018-06-30T05:08:53.327Z,100.00
2018-06-30T05:10:24.689Z,100.00
2018-06-30T05:11:51.962Z,100.00
2018-06-30T05:13:15.371Z,100.00
2018-06-30T05:14:46.695Z,100.00
2018-06-30T05:16:10.067Z,100.00
2018-06-30T05:17:37.267Z,100.00
2018-06-30T05:19:08.753Z,100.00
2018-06-30T05:20:32.201Z,100.00
2018-06-30T05:21:59.931Z,100.00
2018-06-30T05:23:27.513Z,100.00
2018-06-30T05:24:58.453Z,100.00
2018-06-30T05:26:21.896Z,100.00
2018-06-30T05:27:53.265Z,100.00
2018-06-30T05:29:20.668Z,100.00
2018-06-30T05:30:44.033Z,100.00
2018-06-30T05:32:11.569Z,100.00
2018-06-30T05:33:43.259Z,100.00
2018-06-30T05:35:10.338Z,100.00
2018-06-30T05:36:33.924Z,100.00
2018-06-30T05:38:01.422Z,100.00
2018-06-30T05:39:32.934Z,100.00
2018-06-30T05:40:56.313Z,100.00
2018-06-30T05:42:23.859Z,100.00
2018-06-30T05:43:51.429Z,100.00
2018-06-30T05:45:19.187Z,100.00
2018-06-30T05:46:50.718Z,100.00
2018-06-30T05:48:14.403Z,100.00
2018-06-30T05:49:42.075Z,100.00
2018-06-30T05:51:09.741Z,100.00
2018-06-30T06:14:06.388Z,87.92
2018-06-30T06:15:33.588Z,94.28
2018-06-30T06:17:00.954Z,93.13
2018-06-30T06:18:28.592Z,84.43
2018-06-30T06:19:55.891Z,78.72
2018-06-30T06:21:23.479Z,71.10
2018-06-30T06:22:50.968Z,70.38
2018-06-30T06:24:22.570Z,76.25
2018-06-30T06:25:46.068Z,82.40
2018-06-30T06:27:13.513Z,79.75
2018-06-30T06:28:41.154Z,85.35
2018-06-30T06:30:12.784Z,84.23
2018-06-30T06:31:36.188Z,84.33
2018-06-30T06:33:07.561Z,83.96
2018-06-30T06:34:35.242Z,88.47
2018-06-30T06:36:02.755Z,89.82
2018-06-30T06:37:26.344Z,93.16
2018-06-30T06:38:53.760Z,86.91
2018-06-30T06:40:20.948Z,89.22
2018-06-30T06:41:48.443Z,87.68
2018-06-30T06:43:16.081Z,87.00
2018-06-30T06:44:43.368Z,84.25
2018-06-30T06:46:10.880Z,82.59
2018-06-30T06:47:38.443Z,78.74
2018-06-30T06:49:05.971Z,76.68
2018-06-30T06:50:33.675Z,73.30
2018-06-30T06:52:01.063Z,73.41
2018-06-30T06:53:28.861Z,69.07
2018-06-30T06:54:56.064Z,68.75
2018-06-30T06:56:23.789Z,64.21
2018-06-30T06:57:51.268Z,59.97
2018-06-30T06:59:18.990Z,63.76
2018-06-30T07:00:50.291Z,64.30
2018-06-30T07:02:17.909Z,60.06
2018-06-30T07:03:41.706Z,58.38
2018-06-30T07:05:12.721Z,59.07
2018-06-30T07:06:36.214Z,56.94
2018-06-30T07:08:07.889Z,60.29
2018-06-30T07:09:31.509Z,55.47
2018-06-30T07:11:03.151Z,59.08
2018-06-30T07:12:26.684Z,57.39
2018-06-30T07:13:54.200Z,57.51
2018-06-30T07:15:21.791Z,64.99
2018-06-30T07:16:49.471Z,60.48
2018-06-30T07:18:16.491Z,61.07
2018-06-30T07:19:43.829Z,71.45
2018-06-30T07:21:11.400Z,66.20
2018-06-30T07:22:43.029Z,59.92
2018-06-30T07:24:06.530Z,59.57
2018-06-30T07:25:34.032Z,57.89
2018-06-30T07:27:01.872Z,59.34
2018-06-30T07:28:29.240Z,58.50
2018-06-30T07:29:56.858Z,63.31
2018-06-30T07:31:24.094Z,55.46
2018-06-30T07:32:51.730Z,58.82
2018-06-30T07:34:19.421Z,56.82
2018-06-30T07:35:47.027Z,56.72
2018-06-30T07:37:14.346Z,56.60
2018-06-30T07:38:41.987Z,55.60
2018-06-30T07:40:09.359Z,58.69
2018-06-30T07:41:41.123Z,61.29
2018-06-30T07:43:08.609Z,66.22
2018-06-30T07:44:36.112Z,62.04
2018-06-30T10:10:44.301Z,74.41
2018-06-30T10:12:11.631Z,70.82
2018-06-30T10:13:39.241Z,69.90
2018-06-30T10:15:10.790Z,81.41
2018-06-30T10:16:34.417Z,83.08
2018-06-30T10:18:05.955Z,69.26
2018-06-30T10:19:29.554Z,70.26
2018-06-30T10:20:56.856Z,80.42
2018-06-30T10:22:23.957Z,73.51
2018-06-30T10:23:51.613Z,73.27
2018-06-30T10:25:19.165Z,73.79
2018-06-30T10:26:46.621Z,75.55
2018-06-30T10:28:14.168Z,78.75
2018-06-30T10:29:41.538Z,77.66
2018-06-30T10:31:08.981Z,74.79
2018-06-30T10:32:36.434Z,71.43
2018-06-30T10:34:03.772Z,76.08
2018-06-30T10:35:31.172Z,78.36
2018-06-30T10:37:02.672Z,80.48
2018-06-30T10:38:25.993Z,77.48
2018-06-30T10:39:53.687Z,80.32
2018-06-30T10:41:25.256Z,82.18
2018-06-30T10:42:48.789Z,81.07
2018-06-30T10:44:20.275Z,81.87
2018-06-30T10:45:43.678Z,77.80
2018-06-30T10:47:11.256Z,83.18
2018-06-30T10:48:38.627Z,85.70
2018-06-30T10:50:06.254Z,89.42
2018-06-30T10:51:33.644Z,82.99
2018-06-30T10:53:01.033Z,85.15
2018-06-30T10:54:28.564Z,80.19
2018-06-30T10:55:56.069Z,76.27
2018-06-30T10:57:23.685Z,78.80
2018-06-30T10:58:51.185Z,80.81
2018-06-30T11:00:18.272Z,74.73
2018-06-30T11:01:45.703Z,76.52
2018-06-30T11:03:13.427Z,78.19
2018-06-30T11:04:40.996Z,73.14
2018-06-30T11:06:08.333Z,70.23
2018-06-30T11:07:35.745Z,63.43
2018-06-30T11:09:07.142Z,79.05
2018-06-30T11:10:30.656Z,72.20
2018-06-30T11:11:58.191Z,59.00
2018-06-30T11:13:29.553Z,65.21
2018-06-30T11:14:53.164Z,63.36
2018-06-30T11:16:20.752Z,58.52
2018-06-30T11:17:48.178Z,63.75
2018-06-30T11:19:15.820Z,62.17
2018-06-30T11:20:47.472Z,55.73
2018-06-30T11:22:11.004Z,54.88
2018-06-30T11:23:38.853Z,59.80
2018-06-30T11:25:06.382Z,58.97
2018-06-30T11:26:34.057Z,55.52
2018-06-30T11:28:05.539Z,59.79
2018-06-30T11:29:28.943Z,63.04
2018-06-30T11:31:00.358Z,69.26
2018-06-30T11:32:27.960Z,75.17
2018-06-30T11:33:55.461Z,73.82
2018-06-30T11:35:19.153Z,72.25
2018-06-30T11:36:46.756Z,79.99
2018-06-30T11:38:14.168Z,79.37
2018-06-30T11:39:45.872Z,82.85
2018-06-30T11:41:13.489Z,78.72
2018-06-30T11:42:37.131Z,78.56
2018-06-30T11:44:04.619Z,77.79
2018-06-30T11:45:32.139Z,78.28
2018-06-30T11:46:59.768Z,81.42
2018-06-30T11:48:27.211Z,78.98
2018-06-30T11:49:54.638Z,75.98
2018-06-30T11:51:21.972Z,80.73
2018-06-30T11:52:49.468Z,76.98
2018-06-30T11:54:20.941Z,82.09
2018-06-30T11:55:44.613Z,83.33
2018-06-30T11:57:12.012Z,79.12
2018-06-30T11:58:39.714Z,79.40
2018-06-30T12:00:07.318Z,75.02
2018-06-30T12:01:39.075Z,66.29
2018-06-30T12:03:02.391Z,68.76
2018-06-30T12:04:30.056Z,73.41
2018-06-30T12:05:57.558Z,63.27
2018-06-30T12:07:29.123Z,58.51
2018-06-30T12:08:52.755Z,56.12
2018-06-30T12:10:20.053Z,58.97
2018-06-30T12:11:47.785Z,62.28
2018-06-30T12:13:15.298Z,63.94
2018-06-30T12:14:42.965Z,67.22
2018-06-30T12:16:10.527Z,72.00
2018-06-30T12:17:38.189Z,71.79
2018-06-30T12:19:05.857Z,75.99
2018-06-30T12:20:37.488Z,73.19
2018-06-30T12:22:01.097Z,78.03
2018-06-30T12:23:28.835Z,79.44
2018-06-30T12:24:56.412Z,77.60
2018-06-30T12:26:24.014Z,78.98
2018-06-30T12:27:51.636Z,76.36
2018-06-30T12:29:19.052Z,74.36
2018-06-30T12:30:50.535Z,78.02
2018-06-30T12:32:14.258Z,68.20
2018-06-30T12:33:45.682Z,62.89
2018-06-30T12:35:09.168Z,61.94
2018-06-30T12:36:36.828Z,62.23
2018-06-30T12:38:04.319Z,60.81
2018-06-30T12:39:31.835Z,64.32
2018-06-30T12:40:59.292Z,59.83
2018-06-30T12:42:26.754Z,61.07
2018-06-30T12:43:54.237Z,66.92
2018-06-30T12:45:21.994Z,61.44
2018-06-30T12:46:53.592Z,64.74
2018-06-30T12:48:17.037Z,64.11
2018-06-30T12:49:44.535Z,64.89
2018-06-30T12:51:12.096Z,63.87
2018-06-30T12:52:39.454Z,66.41
2018-06-30T12:54:06.932Z,70.11
2018-06-30T12:55:34.367Z,69.62
2018-06-30T12:57:01.635Z,63.45
2018-06-30T12:58:34.105Z,58.13
2018-06-30T12:59:56.614Z,56.50
2018-06-30T13:01:24.114Z,55.92
2018-06-30T13:02:51.709Z,55.98
2018-06-30T13:04:19.366Z,58.49
2018-06-30T13:05:46.961Z,65.28
2018-06-30T13:07:14.547Z,59.01
2018-06-30T13:08:42.034Z,65.03
2018-06-30T13:10:13.515Z,67.32
2018-06-30T13:11:41.134Z,63.12
2018-06-30T13:13:08.526Z,61.11
2018-06-30T13:14:32.007Z,61.01
2018-06-30T13:15:59.341Z,55.75
2018-06-30T13:17:26.983Z,61.03
2018-06-30T13:18:54.631Z,58.74
2018-06-30T13:20:26.214Z,58.63
2018-06-30T13:21:49.383Z,59.06
2018-06-30T13:23:17.132Z,58.17
2018-06-30T13:24:48.832Z,55.25
2018-06-30T13:26:12.415Z,51.71
2018-06-30T13:27:43.935Z,51.94
2018-06-30T13:29:07.515Z,52.02
2018-06-30T13:30:34.927Z,52.63
2018-06-30T13:32:02.311Z,53.02
2018-06-30T13:33:29.994Z,50.89
2018-06-30T13:34:57.473Z,50.70
2018-06-30T13:36:29.115Z,49.40
2018-06-30T13:37:56.713Z,49.38
2018-06-30T13:39:24.187Z,51.75
2018-06-30T13:40:51.786Z,49.79
2018-06-30T13:42:15.337Z,46.79
2018-06-30T13:43:46.876Z,49.90
2018-06-30T13:45:10.455Z,50.30
2018-06-30T13:46:38.085Z,49.31
2018-06-30T13:48:05.619Z,49.65
2018-06-30T13:49:33.250Z,49.88
2018-06-30T13:51:00.698Z,51.62
2018-06-30T13:52:27.997Z,49.85
2018-06-30T13:53:55.758Z,50.73
2018-06-30T13:55:27.275Z,50.20
2018-06-30T13:56:54.746Z,50.20
2018-06-30T13:58:18.401Z,50.65
2018-06-30T13:59:45.988Z,51.80
2018-06-30T14:01:13.618Z,48.37
2018-06-30T14:02:45.068Z,46.93
2018-06-30T14:04:08.609Z,48.03
2018-06-30T14:05:39.939Z,49.47
2018-06-30T14:07:07.446Z,48.73
2018-06-30T14:08:30.863Z,48.81
2018-06-30T14:10:02.428Z,46.74
2018-06-30T14:11:26.048Z,46.84
2018-06-30T14:12:53.530Z,46.11
2018-06-30T14:14:21.276Z,45.76
2018-06-30T14:15:48.847Z,44.53
2018-06-30T14:17:16.577Z,47.06
2018-06-30T14:33:08.968Z,50.19
2018-06-30T14:34:31.296Z,48.09
2018-06-30T14:35:59.009Z,47.77
2018-06-30T14:37:30.483Z,43.72
2018-06-30T14:38:58.049Z,44.88
2018-06-30T14:40:21.694Z,44.52
2018-06-30T14:41:53.103Z,45.25
2018-06-30T14:43:16.647Z,45.58
2018-06-30T14:44:48.242Z,46.52
2018-06-30T14:46:11.777Z,49.71
2018-06-30T14:47:39.138Z,45.18
2018-06-30T14:49:06.677Z,47.92
2018-06-30T14:50:38.198Z,46.72
2018-06-30T14:52:05.421Z,48.15
2018-06-30T14:53:28.808Z,47.48
2018-06-30T14:54:56.342Z,48.88
2018-06-30T14:56:23.869Z,47.17
2018-06-30T14:57:55.484Z,45.33
2018-06-30T14:59:19.079Z,45.86
2018-06-30T15:00:46.556Z,46.87
2018-06-30T15:02:18.133Z,46.24
2018-06-30T15:03:45.451Z,48.41
2018-06-30T15:05:12.894Z,47.86
2018-06-30T15:06:36.184Z,46.93
2018-06-30T15:08:03.911Z,46.36
2018-06-30T15:09:35.451Z,45.93
2018-06-30T15:10:59.031Z,44.87
2018-06-30T15:12:26.523Z,45.53
2018-06-30T15:13:58.036Z,46.16
2018-06-30T15:15:25.397Z,49.32
2018-06-30T15:16:52.830Z,46.95
2018-06-30T15:18:16.237Z,48.73
2018-06-30T15:19:47.896Z,47.42
2018-06-30T15:21:15.441Z,46.96
2018-06-30T15:22:43.051Z,47.48
2018-06-30T15:24:06.368Z,48.57
2018-06-30T15:25:33.939Z,48.38
2018-06-30T15:27:01.549Z,46.91
2018-06-30T15:28:29.021Z,44.76
2018-06-30T15:30:00.500Z,44.03
2018-06-30T15:31:28.046Z,47.45
2018-06-30T15:32:51.602Z,48.85
2018-06-30T15:34:19.155Z,48.60
2018-06-30T15:35:46.603Z,49.73
2018-06-30T15:37:18.040Z,47.83
2018-06-30T15:38:41.556Z,47.88
2018-06-30T15:40:09.160Z,48.18
2018-06-30T15:41:36.865Z,48.99
2018-06-30T15:43:04.531Z,49.83
2018-06-30T15:44:35.781Z,50.78
2018-06-30T15:45:59.549Z,49.94
2018-06-30T15:47:30.890Z,50.71
2018-06-30T15:48:58.505Z,53.74
2018-06-30T15:50:22.091Z,50.47
2018-06-30T15:51:53.419Z,51.50
2018-06-30T15:53:21.040Z,52.58
2018-06-30T15:54:52.477Z,51.09
2018-06-30T15:56:11.886Z,49.97
2018-06-30T15:57:43.557Z,49.60
2018-06-30T15:59:07.259Z,53.12
2018-06-30T16:00:34.832Z,52.72
2018-06-30T16:02:06.461Z,52.63
2018-06-30T16:03:29.926Z,53.86
2018-06-30T16:04:57.162Z,54.64
2018-06-30T16:06:28.862Z,52.53
2018-06-30T16:07:52.342Z,51.94
2018-06-30T16:09:19.774Z,51.73
2018-06-30T16:10:47.160Z,51.40
2018-06-30T16:12:14.618Z,50.59
2018-06-30T16:13:42.222Z,53.14
2018-06-30T16:15:13.747Z,51.04
2018-06-30T16:16:41.207Z,52.15
2018-06-30T16:18:08.866Z,51.30
2018-06-30T16:19:32.520Z,52.91
2018-06-30T16:21:04.101Z,51.43
2018-06-30T16:22:31.656Z,52.19
2018-06-30T16:23:55.125Z,52.23
2018-06-30T16:25:22.776Z,54.42
2018-06-30T16:26:50.139Z,51.96
2018-06-30T16:28:17.651Z,52.43
2018-06-30T16:29:45.211Z,53.14
2018-06-30T16:31:12.731Z,53.25
2018-06-30T16:32:40.448Z,53.07
2018-06-30T16:34:07.955Z,54.86
2018-06-30T16:35:35.561Z,55.74
2018-06-30T16:37:03.068Z,64.11
2018-06-30T16:38:34.647Z,57.69
2018-06-30T16:39:58.267Z,58.40
2018-06-30T16:41:25.840Z,57.74
2018-06-30T16:42:53.327Z,56.28
2018-06-30T16:44:20.956Z,57.22
2018-06-30T16:45:48.460Z,59.38
2018-06-30T16:47:20.097Z,55.92
2018-06-30T16:48:43.659Z,54.91
2018-06-30T16:50:11.233Z,59.31
2018-06-30T16:51:38.941Z,56.50
2018-06-30T16:53:06.428Z,54.34
2018-06-30T16:54:33.885Z,57.50
2018-06-30T16:56:01.606Z,56.75
2018-06-30T16:57:29.145Z,58.46
2018-06-30T16:58:56.639Z,59.17
2018-06-30T17:00:27.930Z,62.18
2018-06-30T17:01:51.489Z,66.44
2018-06-30T17:03:18.941Z,65.03
2018-06-30T17:04:46.424Z,65.19
2018-06-30T17:06:13.947Z,65.34
2018-06-30T17:07:45.555Z,67.29
2018-06-30T17:09:13.343Z,67.45
2018-06-30T17:10:40.947Z,64.81
2018-06-30T17:12:04.556Z,65.81
2018-06-30T17:13:32.194Z,64.30
2018-06-30T17:14:59.901Z,64.35
2018-06-30T17:16:31.294Z,68.42
2018-06-30T17:17:58.801Z,67.47
2018-06-30T17:19:21.947Z,71.84
2018-06-30T17:20:49.522Z,66.40
2018-06-30T17:22:16.839Z,66.25
2018-06-30T17:23:44.537Z,65.98
2018-06-30T17:25:12.319Z,68.21
2018-06-30T17:26:40.150Z,66.65
2018-06-30T17:28:07.597Z,65.74
2018-06-30T17:29:34.926Z,65.78
2018-06-30T17:31:02.672Z,65.75
2018-06-30T17:32:34.244Z,66.08
2018-06-30T17:33:57.733Z,67.67
2018-06-30T17:35:25.311Z,70.64
2018-06-30T17:36:52.674Z,73.85
2018-06-30T17:38:20.308Z,76.23
2018-06-30T17:39:51.608Z,77.39
2018-06-30T17:41:15.150Z,75.96
2018-06-30T17:42:46.612Z,74.83
2018-06-30T17:44:13.966Z,76.97
2018-06-30T17:45:41.484Z,77.26
2018-06-30T17:47:04.883Z,77.81
2018-06-30T17:48:32.479Z,78.08
2018-06-30T17:50:00.121Z,78.61
2018-06-30T17:51:27.633Z,80.24
2018-06-30T17:52:55.175Z,80.34
2018-06-30T17:54:22.814Z,81.03
2018-06-30T17:55:50.064Z,82.45
2018-06-30T17:57:17.581Z,84.17
2018-06-30T17:58:45.211Z,84.95
2018-06-30T18:00:12.570Z,85.39
2018-06-30T18:01:40.206Z,87.44
2018-06-30T18:03:07.777Z,87.24
2018-06-30T18:04:39.187Z,87.96
2018-06-30T18:06:02.641Z,87.82
2018-06-30T18:07:33.835Z,88.34
2018-06-30T18:08:57.378Z,88.22
2018-06-30T18:10:28.941Z,88.40
2018-06-30T18:11:52.294Z,88.42
2018-06-30T18:13:19.771Z,89.49
2018-06-30T18:14:47.275Z,89.75
2018-06-30T18:16:14.668Z,90.18
2018-06-30T18:17:42.141Z,88.83
2018-06-30T18:19:09.795Z,89.48
2018-06-30T18:20:37.422Z,89.81
2018-06-30T18:22:04.974Z,89.81
2018-06-30T18:23:32.458Z,89.98
2018-06-30T18:24:59.965Z,88.63
2018-06-30T18:26:27.471Z,88.95
2018-06-30T18:27:58.965Z,89.53
2018-06-30T18:29:22.519Z,88.75
2018-06-30T18:30:53.851Z,89.46
2018-06-30T18:32:17.218Z,88.91
2018-06-30T18:33:44.822Z,89.90
2018-06-30T18:35:12.462Z,90.12
2018-06-30T18:36:43.961Z,90.79
2018-06-30T18:38:07.317Z,89.27
2018-06-30T18:39:34.690Z,89.02
2018-06-30T18:41:02.217Z,89.93
2018-06-30T18:42:29.584Z,90.33
2018-06-30T18:44:00.952Z,89.94
2018-06-30T18:45:28.434Z,90.26
2018-06-30T18:46:51.755Z,90.37
2018-06-30T18:48:23.303Z,90.24
2018-06-30T18:49:50.731Z,90.17
2018-06-30T18:51:14.246Z,90.59
2018-06-30T18:52:41.813Z,90.38
2018-06-30T18:54:13.280Z,91.62
2018-06-30T18:55:36.675Z,91.90
2018-06-30T18:57:04.215Z,92.08
2018-06-30T18:58:31.773Z,93.29
2018-06-30T18:59:59.180Z,93.67
2018-06-30T19:01:26.570Z,93.71
2018-06-30T19:02:58.130Z,94.03
2018-06-30T19:04:21.580Z,94.59
2018-06-30T19:05:53.081Z,94.30
2018-06-30T19:07:16.353Z,95.66
2018-06-30T19:08:48.041Z,95.24
2018-06-30T19:10:11.499Z,95.81
2018-06-30T19:11:38.818Z,95.39
2018-06-30T19:13:06.458Z,96.29
2018-06-30T19:14:34.047Z,95.71
2018-06-30T19:16:05.563Z,96.48
2018-06-30T19:17:29.054Z,96.19
2018-06-30T19:18:56.602Z,96.38
2018-06-30T19:20:24.088Z,97.56
2018-06-30T19:21:55.628Z,97.44
2018-06-30T19:23:23.046Z,97.60
2018-06-30T19:24:46.327Z,100.00
2018-06-30T19:26:17.932Z,100.00
2018-06-30T19:27:41.301Z,100.00
2018-06-30T19:29:12.812Z,100.00
2018-06-30T19:30:36.319Z,100.00
2018-06-30T19:32:07.731Z,100.00
2018-06-30T19:33:30.980Z,99.92
2018-06-30T19:34:58.641Z,100.00
2018-06-30T19:36:26.207Z,100.00
2018-06-30T19:37:53.617Z,100.00
2018-06-30T19:39:25.232Z,100.00
2018-06-30T19:40:52.597Z,100.00
2018-06-30T19:42:16.037Z,100.00
2018-06-30T19:43:43.496Z,100.00
2018-06-30T19:45:10.851Z,100.00
2018-06-30T19:46:42.458Z,100.00
2018-06-30T19:48:05.988Z,100.00
2018-06-30T19:49:33.380Z,100.00
2018-06-30T19:51:05.009Z,100.00
2018-06-30T19:52:28.368Z,100.00
2018-06-30T19:53:55.875Z,100.00
2018-06-30T19:55:23.300Z,100.00
2018-06-30T19:56:50.781Z,100.00
2018-06-30T19:58:22.210Z,100.00
2018-06-30T19:59:45.734Z,100.00
2018-06-30T20:01:16.984Z,100.00
2018-06-30T20:02:40.432Z,100.00
2018-06-30T20:04:11.872Z,100.00
2018-06-30T20:05:35.398Z,100.00
2018-06-30T20:07:06.980Z,100.00
2018-06-30T20:08:30.220Z,100.00
2018-06-30T20:09:57.488Z,100.00
2018-06-30T20:11:24.983Z,100.00
2018-06-30T20:12:52.236Z,100.00
2018-06-30T20:14:19.791Z,100.00
2018-06-30T20:15:47.211Z,100.00
2018-06-30T20:17:18.762Z,100.00
2018-06-30T20:18:46.275Z,100.00
2018-06-30T20:20:09.675Z,100.00
2018-06-30T20:21:37.185Z,100.00
2018-06-30T20:23:04.784Z,100.00
2018-06-30T20:24:32.133Z,100.00
2018-06-30T20:26:03.666Z,100.00
2018-06-30T20:27:26.878Z,100.00
2018-06-30T20:28:58.320Z,100.00
2018-06-30T20:30:21.874Z,100.00
2018-06-30T20:31:53.173Z,100.00
2018-06-30T20:33:16.547Z,100.00
2018-06-30T20:34:48.016Z,100.00
2018-06-30T20:36:15.704Z,100.00
2018-06-30T20:37:39.239Z,100.00
2018-06-30T20:39:10.826Z,100.00
2018-06-30T20:40:33.888Z,100.00
2018-06-30T20:42:05.305Z,100.00
2018-06-30T20:43:32.497Z,100.00
2018-06-30T20:45:00.191Z,100.00
2018-06-30T20:46:23.591Z,100.00
2018-06-30T20:47:51.050Z,100.00
2018-06-30T20:49:18.263Z,100.00
2018-06-30T20:50:45.606Z,100.00
2018-06-30T20:52:12.889Z,100.00
2018-06-30T20:53:40.299Z,100.00
2018-06-30T20:55:07.673Z,100.00
2018-06-30T20:56:35.113Z,100.00
2018-06-30T20:58:02.709Z,100.00
2018-06-30T20:59:34.164Z,100.00
2018-06-30T21:01:01.442Z,100.00
2018-06-30T21:02:24.712Z,100.00
2018-06-30T21:03:52.136Z,100.00
2018-06-30T21:05:19.547Z,100.00
2018-06-30T21:06:46.673Z,100.00
2018-06-30T21:08:18.275Z,100.00
2018-06-30T21:09:41.623Z,100.00
2018-06-30T21:11:08.872Z,100.00
2018-06-30T21:12:36.474Z,100.00
2018-06-30T21:14:03.787Z,100.00
2018-06-30T21:15:35.249Z,100.00
2018-06-30T21:17:02.614Z,100.00
2018-06-30T21:18:30.068Z,100.00
2018-06-30T21:19:53.320Z,100.00
2018-06-30T21:21:24.747Z,100.00
2018-06-30T21:22:48.195Z,100.00
2018-06-30T21:24:19.621Z,100.00
2018-06-30T21:25:46.979Z,100.00
2018-06-30T21:27:10.419Z,100.00
2018-06-30T21:28:37.986Z,100.00
2018-06-30T21:30:05.441Z,100.00
2018-06-30T21:31:32.918Z,100.00